Malton, United Kingdom
Current Conditions -  °F | °C
As of 7:50 AM on Tuesday 21 Oct 2014 (Local Time) from EGXU Reporting Station
Few Clouds Few Clouds  
Wind Chill: 52°   Ceiling: Unl
Heat Index: 52°   Visibility: 6mi
Dew Point: 45°   Wind: 22mph
Humidity: 76%   Direction: 270°W
Pressure: 29.29"   Gusts: 36mph
Location:  54.13°N, 0.8°W
Report Text: EGXU 210650Z 27019G31KT 9999 FEW018 11/07 Q0992 BLU NOSIG
Loading
Personal Weather Stations






























Interactive Weather Map
Tropical Storm Tracking
New forecast layout! Learn more

10-Day Weather Forecast

Advertisements
Track Severe Weather on mobile